sensor_id;sensor_type;location;lat;lon;timestamp;temperature;humidity
66722;SHT31;53633;49.932;10.884;2022-07-24T00:00:18;19.51;65.91
66722;SHT31;53633;49.932;10.884;2022-07-24T00:02:45;19.49;66.44
66722;SHT31;53633;49.932;10.884;2022-07-24T00:05:11;19.63;65.66
66722;SHT31;53633;49.932;10.884;2022-07-24T00:07:38;19.66;65.46
66722;SHT31;53633;49.932;10.884;2022-07-24T00:10:08;19.56;65.65
66722;SHT31;53633;49.932;10.884;2022-07-24T00:12:35;19.33;66.39
66722;SHT31;53633;49.932;10.884;2022-07-24T00:15:02;19.20;66.56
66722;SHT31;53633;49.932;10.884;2022-07-24T00:17:29;19.31;66.21
66722;SHT31;53633;49.932;10.884;2022-07-24T00:19:56;19.34;65.95
66722;SHT31;53633;49.932;10.884;2022-07-24T00:22:22;19.10;66.34
66722;SHT31;53633;49.932;10.884;2022-07-24T00:24:49;19.02;66.75
66722;SHT31;53633;49.932;10.884;2022-07-24T00:27:17;18.72;66.96
66722;SHT31;53633;49.932;10.884;2022-07-24T00:29:44;18.44;67.89
66722;SHT31;53633;49.932;10.884;2022-07-24T00:32:10;18.53;68.16
66722;SHT31;53633;49.932;10.884;2022-07-24T00:34:37;18.65;67.17
66722;SHT31;53633;49.932;10.884;2022-07-24T00:37:04;18.74;67.17
66722;SHT31;53633;49.932;10.884;2022-07-24T00:39:30;18.79;67.27
66722;SHT31;53633;49.932;10.884;2022-07-24T00:41:57;18.61;67.67
66722;SHT31;53633;49.932;10.884;2022-07-24T00:44:25;18.50;68.02
66722;SHT31;53633;49.932;10.884;2022-07-24T00:46:52;18.45;67.86
66722;SHT31;53633;49.932;10.884;2022-07-24T00:49:19;18.40;68.32
66722;SHT31;53633;49.932;10.884;2022-07-24T00:51:49;18.37;68.34
66722;SHT31;53633;49.932;10.884;2022-07-24T00:54:17;18.29;68.19
66722;SHT31;53633;49.932;10.884;2022-07-24T00:56:46;18.22;68.71
66722;SHT31;53633;49.932;10.884;2022-07-24T00:59:14;18.40;68.29
66722;SHT31;53633;49.932;10.884;2022-07-24T01:01:42;18.64;67.80
66722;SHT31;53633;49.932;10.884;2022-07-24T01:04:09;18.48;67.69
66722;SHT31;53633;49.932;10.884;2022-07-24T01:06:40;18.34;67.96
66722;SHT31;53633;49.932;10.884;2022-07-24T01:09:07;18.60;67.68
66722;SHT31;53633;49.932;10.884;2022-07-24T01:11:33;18.68;67.29
66722;SHT31;53633;49.932;10.884;2022-07-24T01:14:00;18.55;67.86
66722;SHT31;53633;49.932;10.884;2022-07-24T01:16:27;18.57;67.82
66722;SHT31;53633;49.932;10.884;2022-07-24T01:18:55;18.64;67.31
66722;SHT31;53633;49.932;10.884;2022-07-24T01:21:23;18.34;67.72
66722;SHT31;53633;49.932;10.884;2022-07-24T01:23:50;18.05;69.01
66722;SHT31;53633;49.932;10.884;2022-07-24T01:26:16;18.16;69.22
66722;SHT31;53633;49.932;10.884;2022-07-24T01:28:43;17.90;69.23
66722;SHT31;53633;49.932;10.884;2022-07-24T01:31:10;18.03;69.22
66722;SHT31;53633;49.932;10.884;2022-07-24T01:33:36;17.88;69.50
66722;SHT31;53633;49.932;10.884;2022-07-24T01:36:03;17.64;69.82
66722;SHT31;53633;49.932;10.884;2022-07-24T01:38:32;17.57;70.20
66722;SHT31;53633;49.932;10.884;2022-07-24T01:40:58;17.38;70.85
66722;SHT31;53633;49.932;10.884;2022-07-24T01:43:25;17.41;70.64
66722;SHT31;53633;49.932;10.884;2022-07-24T01:45:51;17.35;70.89
66722;SHT31;53633;49.932;10.884;2022-07-24T01:48:18;17.48;70.82
66722;SHT31;53633;49.932;10.884;2022-07-24T01:50:45;17.64;70.12
66722;SHT31;53633;49.932;10.884;2022-07-24T01:53:11;17.93;69.44
66722;SHT31;53633;49.932;10.884;2022-07-24T01:55:39;18.27;68.34
66722;SHT31;53633;49.932;10.884;2022-07-24T01:58:06;18.17;68.58
66722;SHT31;53633;49.932;10.884;2022-07-24T02:00:33;18.03;68.46
66722;SHT31;53633;49.932;10.884;2022-07-24T02:03:00;17.77;69.50
66722;SHT31;53633;49.932;10.884;2022-07-24T02:05:27;17.72;69.90
66722;SHT31;53633;49.932;10.884;2022-07-24T02:07:55;17.37;70.80
66722;SHT31;53633;49.932;10.884;2022-07-24T02:10:22;17.24;71.02
66722;SHT31;53633;49.932;10.884;2022-07-24T02:12:50;17.10;71.67
66722;SHT31;53633;49.932;10.884;2022-07-24T02:15:17;16.97;72.09
66722;SHT31;53633;49.932;10.884;2022-07-24T02:17:48;16.99;72.55
66722;SHT31;53633;49.932;10.884;2022-07-24T02:20:15;17.24;71.55
66722;SHT31;53633;49.932;10.884;2022-07-24T02:22:42;17.14;71.60
66722;SHT31;53633;49.932;10.884;2022-07-24T02:25:09;17.50;70.47
66722;SHT31;53633;49.932;10.884;2022-07-24T02:27:35;17.35;70.74
66722;SHT31;53633;49.932;10.884;2022-07-24T02:30:05;17.06;72.07
66722;SHT31;53633;49.932;10.884;2022-07-24T02:32:32;17.03;72.01
66722;SHT31;53633;49.932;10.884;2022-07-24T02:34:59;17.06;72.24
66722;SHT31;53633;49.932;10.884;2022-07-24T02:37:32;17.12;71.28
66722;SHT31;53633;49.932;10.884;2022-07-24T02:39:59;16.89;72.27
66722;SHT31;53633;49.932;10.884;2022-07-24T02:42:25;17.07;72.22
66722;SHT31;53633;49.932;10.884;2022-07-24T02:44:52;16.99;72.36
66722;SHT31;53633;49.932;10.884;2022-07-24T02:47:20;16.86;72.66
66722;SHT31;53633;49.932;10.884;2022-07-24T02:49:47;16.76;72.87
66722;SHT31;53633;49.932;10.884;2022-07-24T02:52:13;16.71;73.23
66722;SHT31;53633;49.932;10.884;2022-07-24T02:54:40;16.58;73.55
66722;SHT31;53633;49.932;10.884;2022-07-24T02:57:07;16.71;73.58
66722;SHT31;53633;49.932;10.884;2022-07-24T02:59:33;16.58;73.60
66722;SHT31;53633;49.932;10.884;2022-07-24T03:02:00;16.41;74.27
66722;SHT31;53633;49.932;10.884;2022-07-24T03:04:28;16.34;74.56
66722;SHT31;53633;49.932;10.884;2022-07-24T03:06:55;16.27;75.09
66722;SHT31;53633;49.932;10.884;2022-07-24T03:09:21;16.20;75.36
66722;SHT31;53633;49.932;10.884;2022-07-24T03:11:48;16.11;75.60
66722;SHT31;53633;49.932;10.884;2022-07-24T03:14:15;16.32;74.94
66722;SHT31;53633;49.932;10.884;2022-07-24T03:16:41;16.45;74.73
66722;SHT31;53633;49.932;10.884;2022-07-24T03:19:08;16.54;74.32
66722;SHT31;53633;49.932;10.884;2022-07-24T03:21:36;16.38;74.94
66722;SHT31;53633;49.932;10.884;2022-07-24T03:24:14;16.30;75.01
66722;SHT31;53633;49.932;10.884;2022-07-24T03:26:40;16.18;75.19
66722;SHT31;53633;49.932;10.884;2022-07-24T03:29:07;16.27;74.95
66722;SHT31;53633;49.932;10.884;2022-07-24T03:31:34;16.14;75.60
66722;SHT31;53633;49.932;10.884;2022-07-24T03:34:01;16.10;75.96
66722;SHT31;53633;49.932;10.884;2022-07-24T03:36:28;16.10;75.71
66722;SHT31;53633;49.932;10.884;2022-07-24T03:38:56;16.01;75.80
66722;SHT31;53633;49.932;10.884;2022-07-24T03:41:23;16.40;75.00
66722;SHT31;53633;49.932;10.884;2022-07-24T03:43:50;16.45;74.50
66722;SHT31;53633;49.932;10.884;2022-07-24T03:46:17;16.13;75.32
66722;SHT31;53633;49.932;10.884;2022-07-24T03:48:43;16.31;74.95
66722;SHT31;53633;49.932;10.884;2022-07-24T03:51:10;16.31;75.01
66722;SHT31;53633;49.932;10.884;2022-07-24T03:53:37;16.14;75.90
66722;SHT31;53633;49.932;10.884;2022-07-24T03:56:09;16.14;75.79
66722;SHT31;53633;49.932;10.884;2022-07-24T03:58:36;15.99;76.17
66722;SHT31;53633;49.932;10.884;2022-07-24T04:01:05;16.03;76.30
66722;SHT31;53633;49.932;10.884;2022-07-24T04:03:32;16.28;75.31
66722;SHT31;53633;49.932;10.884;2022-07-24T04:06:00;16.30;75.38
66722;SHT31;53633;49.932;10.884;2022-07-24T04:08:27;16.78;73.25
66722;SHT31;53633;49.932;10.884;2022-07-24T04:10:53;17.07;72.34
66722;SHT31;53633;49.932;10.884;2022-07-24T04:13:21;17.23;71.73
66722;SHT31;53633;49.932;10.884;2022-07-24T04:15:48;17.35;71.41
66722;SHT31;53633;49.932;10.884;2022-07-24T04:18:14;17.34;71.73
66722;SHT31;53633;49.932;10.884;2022-07-24T04:20:41;17.99;69.54
66722;SHT31;53633;49.932;10.884;2022-07-24T04:23:08;18.72;67.25
66722;SHT31;53633;49.932;10.884;2022-07-24T04:25:34;18.99;66.28
66722;SHT31;53633;49.932;10.884;2022-07-24T04:28:02;19.30;64.98
66722;SHT31;53633;49.932;10.884;2022-07-24T04:30:30;19.49;64.84
66722;SHT31;53633;49.932;10.884;2022-07-24T04:32:57;19.68;64.15
66722;SHT31;53633;49.932;10.884;2022-07-24T04:35:24;20.12;62.89
66722;SHT31;53633;49.932;10.884;2022-07-24T04:37:51;20.22;62.43
66722;SHT31;53633;49.932;10.884;2022-07-24T04:40:17;20.44;61.81
66722;SHT31;53633;49.932;10.884;2022-07-24T04:42:44;20.42;61.62
66722;SHT31;53633;49.932;10.884;2022-07-24T04:45:11;20.40;61.53
66722;SHT31;53633;49.932;10.884;2022-07-24T04:47:39;20.56;61.33
66722;SHT31;53633;49.932;10.884;2022-07-24T04:50:07;20.80;60.76
66722;SHT31;53633;49.932;10.884;2022-07-24T04:52:34;21.01;60.09
66722;SHT31;53633;49.932;10.884;2022-07-24T04:55:00;21.12;59.64
66722;SHT31;53633;49.932;10.884;2022-07-24T04:57:27;21.19;59.57
66722;SHT31;53633;49.932;10.884;2022-07-24T04:59:54;21.32;59.38
66722;SHT31;53633;49.932;10.884;2022-07-24T05:02:20;21.57;58.73
66722;SHT31;53633;49.932;10.884;2022-07-24T05:04:48;22.01;57.75
66722;SHT31;53633;49.932;10.884;2022-07-24T05:07:15;22.65;55.95
66722;SHT31;53633;49.932;10.884;2022-07-24T05:09:42;23.24;54.09
66722;SHT31;53633;49.932;10.884;2022-07-24T05:12:08;23.99;52.19
66722;SHT31;53633;49.932;10.884;2022-07-24T05:14:35;23.82;52.61
66722;SHT31;53633;49.932;10.884;2022-07-24T05:17:02;24.23;51.01
66722;SHT31;53633;49.932;10.884;2022-07-24T05:19:28;24.44;50.47
66722;SHT31;53633;49.932;10.884;2022-07-24T05:21:56;24.81;49.97
66722;SHT31;53633;49.932;10.884;2022-07-24T05:24:23;24.55;49.96
66722;SHT31;53633;49.932;10.884;2022-07-24T05:26:50;24.83;49.75
66722;SHT31;53633;49.932;10.884;2022-07-24T05:29:16;25.03;49.19
66722;SHT31;53633;49.932;10.884;2022-07-24T05:31:43;25.16;48.90
66722;SHT31;53633;49.932;10.884;2022-07-24T05:34:10;25.54;47.97
66722;SHT31;53633;49.932;10.884;2022-07-24T05:36:36;25.84;47.64
66722;SHT31;53633;49.932;10.884;2022-07-24T05:39:05;25.74;48.12
66722;SHT31;53633;49.932;10.884;2022-07-24T05:41:32;25.82;47.53
66722;SHT31;53633;49.932;10.884;2022-07-24T05:43:59;26.67;45.94
66722;SHT31;53633;49.932;10.884;2022-07-24T05:46:25;26.47;46.19
66722;SHT31;53633;49.932;10.884;2022-07-24T05:48:52;26.56;46.39
66722;SHT31;53633;49.932;10.884;2022-07-24T05:51:19;27.29;44.66
66722;SHT31;53633;49.932;10.884;2022-07-24T05:53:45;26.18;47.27
66722;SHT31;53633;49.932;10.884;2022-07-24T05:56:13;26.63;45.76
66722;SHT31;53633;49.932;10.884;2022-07-24T05:58:40;27.01;45.05
66722;SHT31;53633;49.932;10.884;2022-07-24T06:01:07;27.61;44.29
66722;SHT31;53633;49.932;10.884;2022-07-24T06:03:33;28.08;43.11
66722;SHT31;53633;49.932;10.884;2022-07-24T06:06:00;27.91;43.10
66722;SHT31;53633;49.932;10.884;2022-07-24T06:08:26;27.91;43.17
66722;SHT31;53633;49.932;10.884;2022-07-24T06:10:53;27.63;43.79
66722;SHT31;53633;49.932;10.884;2022-07-24T06:13:21;28.02;43.38
66722;SHT31;53633;49.932;10.884;2022-07-24T06:15:49;28.15;42.91
66722;SHT31;53633;49.932;10.884;2022-07-24T06:18:15;28.45;42.31
66722;SHT31;53633;49.932;10.884;2022-07-24T06:20:42;28.41;42.72
66722;SHT31;53633;49.932;10.884;2022-07-24T06:23:09;28.53;42.39
66722;SHT31;53633;49.932;10.884;2022-07-24T06:25:47;28.84;41.90
66722;SHT31;53633;49.932;10.884;2022-07-24T06:28:14;29.93;39.59
66722;SHT31;53633;49.932;10.884;2022-07-24T06:30:42;29.80;39.83
66722;SHT31;53633;49.932;10.884;2022-07-24T06:33:09;30.65;37.75
66722;SHT31;53633;49.932;10.884;2022-07-24T06:35:35;30.52;39.09
66722;SHT31;53633;49.932;10.884;2022-07-24T06:38:02;31.27;37.61
66722;SHT31;53633;49.932;10.884;2022-07-24T06:40:29;30.67;38.69
66722;SHT31;53633;49.932;10.884;2022-07-24T06:42:55;31.24;37.64
66722;SHT31;53633;49.932;10.884;2022-07-24T06:45:22;30.67;38.94
66722;SHT31;53633;49.932;10.884;2022-07-24T06:47:51;30.37;39.37
66722;SHT31;53633;49.932;10.884;2022-07-24T06:50:17;31.19;38.21
66722;SHT31;53633;49.932;10.884;2022-07-24T06:52:44;32.15;36.52
66722;SHT31;53633;49.932;10.884;2022-07-24T06:55:11;32.65;35.99
66722;SHT31;53633;49.932;10.884;2022-07-24T06:57:37;32.41;36.17
66722;SHT31;53633;49.932;10.884;2022-07-24T07:00:06;32.16;36.45
66722;SHT31;53633;49.932;10.884;2022-07-24T07:02:33;32.40;36.62
66722;SHT31;53633;49.932;10.884;2022-07-24T07:05:01;32.68;35.81
66722;SHT31;53633;49.932;10.884;2022-07-24T07:07:28;33.18;35.38
66722;SHT31;53633;49.932;10.884;2022-07-24T07:09:54;32.57;36.16
66722;SHT31;53633;49.932;10.884;2022-07-24T07:12:21;32.61;36.21
66722;SHT31;53633;49.932;10.884;2022-07-24T07:14:47;32.17;37.14
66722;SHT31;53633;49.932;10.884;2022-07-24T07:17:14;32.43;37.24
66722;SHT31;53633;49.932;10.884;2022-07-24T07:19:41;32.60;36.74
66722;SHT31;53633;49.932;10.884;2022-07-24T07:22:09;31.53;38.11
66722;SHT31;53633;49.932;10.884;2022-07-24T07:24:36;32.20;36.19
66722;SHT31;53633;49.932;10.884;2022-07-24T07:27:02;33.32;35.53
66722;SHT31;53633;49.932;10.884;2022-07-24T07:29:29;33.78;34.37
66722;SHT31;53633;49.932;10.884;2022-07-24T07:31:56;33.32;35.58
66722;SHT31;53633;49.932;10.884;2022-07-24T07:34:23;32.37;37.58
66722;SHT31;53633;49.932;10.884;2022-07-24T07:36:49;31.90;38.14
66722;SHT31;53633;49.932;10.884;2022-07-24T07:39:17;31.29;39.59
66722;SHT31;53633;49.932;10.884;2022-07-24T07:41:44;31.82;38.51
66722;SHT31;53633;49.932;10.884;2022-07-24T07:44:11;32.04;38.63
66722;SHT31;53633;49.932;10.884;2022-07-24T07:46:37;32.39;37.64
66722;SHT31;53633;49.932;10.884;2022-07-24T07:49:06;31.96;39.01
66722;SHT31;53633;49.932;10.884;2022-07-24T07:51:34;32.37;36.94
66722;SHT31;53633;49.932;10.884;2022-07-24T07:54:00;32.30;38.48
66722;SHT31;53633;49.932;10.884;2022-07-24T07:56:28;31.98;39.44
66722;SHT31;53633;49.932;10.884;2022-07-24T07:58:55;32.50;38.51
66722;SHT31;53633;49.932;10.884;2022-07-24T08:01:27;33.15;36.15
66722;SHT31;53633;49.932;10.884;2022-07-24T08:03:53;33.08;36.13
66722;SHT31;53633;49.932;10.884;2022-07-24T08:06:20;33.39;35.73
66722;SHT31;53633;49.932;10.884;2022-07-24T08:08:49;33.12;35.93
66722;SHT31;53633;49.932;10.884;2022-07-24T08:11:16;33.15;36.19
66722;SHT31;53633;49.932;10.884;2022-07-24T08:13:44;32.33;36.92
66722;SHT31;53633;49.932;10.884;2022-07-24T08:16:11;32.98;36.31
66722;SHT31;53633;49.932;10.884;2022-07-24T08:18:38;33.38;37.30
66722;SHT31;53633;49.932;10.884;2022-07-24T08:21:05;33.39;37.61
66722;SHT31;53633;49.932;10.884;2022-07-24T08:23:32;33.38;36.89
66722;SHT31;53633;49.932;10.884;2022-07-24T08:25:59;33.05;38.31
66722;SHT31;53633;49.932;10.884;2022-07-24T08:28:25;33.05;37.89
66722;SHT31;53633;49.932;10.884;2022-07-24T08:30:53;33.63;36.11
66722;SHT31;53633;49.932;10.884;2022-07-24T08:33:20;34.03;35.91
66722;SHT31;53633;49.932;10.884;2022-07-24T08:35:47;34.73;35.25
66722;SHT31;53633;49.932;10.884;2022-07-24T08:38:13;34.68;34.89
66722;SHT31;53633;49.932;10.884;2022-07-24T08:40:41;34.70;34.85
66722;SHT31;53633;49.932;10.884;2022-07-24T08:43:09;35.20;34.38
66722;SHT31;53633;49.932;10.884;2022-07-24T08:45:37;34.83;34.23
66722;SHT31;53633;49.932;10.884;2022-07-24T08:48:07;34.93;33.53
66722;SHT31;53633;49.932;10.884;2022-07-24T08:50:37;35.40;33.77
66722;SHT31;53633;49.932;10.884;2022-07-24T08:53:04;35.77;32.15
66722;SHT31;53633;49.932;10.884;2022-07-24T08:55:32;35.69;33.17
66722;SHT31;53633;49.932;10.884;2022-07-24T08:58:00;35.42;31.92
66722;SHT31;53633;49.932;10.884;2022-07-24T09:00:29;34.69;33.30
66722;SHT31;53633;49.932;10.884;2022-07-24T09:02:56;35.34;31.67
66722;SHT31;53633;49.932;10.884;2022-07-24T09:05:24;35.69;33.36
66722;SHT31;53633;49.932;10.884;2022-07-24T09:08:05;35.78;32.57
66722;SHT31;53633;49.932;10.884;2022-07-24T09:10:32;35.89;32.61
66722;SHT31;53633;49.932;10.884;2022-07-24T09:13:11;36.39;28.81
66722;SHT31;53633;49.932;10.884;2022-07-24T09:15:44;36.72;28.24
66722;SHT31;53633;49.932;10.884;2022-07-24T09:18:25;37.00;26.37
66722;SHT31;53633;49.932;10.884;2022-07-24T09:20:55;36.51;27.09
66722;SHT31;53633;49.932;10.884;2022-07-24T09:23:22;36.55;25.12
66722;SHT31;53633;49.932;10.884;2022-07-24T09:25:51;36.94;26.47
66722;SHT31;53633;49.932;10.884;2022-07-24T09:28:17;36.81;28.52
66722;SHT31;53633;49.932;10.884;2022-07-24T09:30:46;36.50;28.07
66722;SHT31;53633;49.932;10.884;2022-07-24T09:33:18;36.58;27.63
66722;SHT31;53633;49.932;10.884;2022-07-24T09:35:46;35.92;29.34
66722;SHT31;53633;49.932;10.884;2022-07-24T09:38:17;36.16;29.13
66722;SHT31;53633;49.932;10.884;2022-07-24T09:40:46;36.26;29.29
66722;SHT31;53633;49.932;10.884;2022-07-24T09:43:15;36.19;27.58
66722;SHT31;53633;49.932;10.884;2022-07-24T09:45:54;35.97;29.23
66722;SHT31;53633;49.932;10.884;2022-07-24T09:48:23;36.23;28.25
66722;SHT31;53633;49.932;10.884;2022-07-24T09:50:51;36.27;28.51
66722;SHT31;53633;49.932;10.884;2022-07-24T09:53:22;36.29;27.88
66722;SHT31;53633;49.932;10.884;2022-07-24T09:56:01;35.62;29.02
66722;SHT31;53633;49.932;10.884;2022-07-24T09:58:28;35.31;29.30
66722;SHT31;53633;49.932;10.884;2022-07-24T10:00:56;35.74;29.85
66722;SHT31;53633;49.932;10.884;2022-07-24T10:03:25;35.72;29.99
66722;SHT31;53633;49.932;10.884;2022-07-24T10:05:55;36.15;29.21
66722;SHT31;53633;49.932;10.884;2022-07-24T10:08:25;35.74;30.05
66722;SHT31;53633;49.932;10.884;2022-07-24T10:10:52;35.64;30.02
66722;SHT31;53633;49.932;10.884;2022-07-24T10:13:24;35.27;31.07
66722;SHT31;53633;49.932;10.884;2022-07-24T10:18:47;33.93;31.88
66722;SHT31;53633;49.932;10.884;2022-07-24T10:21:17;33.67;33.71
66722;SHT31;53633;49.932;10.884;2022-07-24T10:24:04;32.97;34.54
66722;SHT31;53633;49.932;10.884;2022-07-24T10:26:38;32.74;35.53
66722;SHT31;53633;49.932;10.884;2022-07-24T10:29:07;32.73;35.28
66722;SHT31;53633;49.932;10.884;2022-07-24T10:31:36;32.85;35.37
66722;SHT31;53633;49.932;10.884;2022-07-24T10:34:06;32.90;35.13
66722;SHT31;53633;49.932;10.884;2022-07-24T10:36:39;32.73;34.57
66722;SHT31;53633;49.932;10.884;2022-07-24T10:39:20;32.64;35.16
66722;SHT31;53633;49.932;10.884;2022-07-24T10:42:00;32.36;36.16
66722;SHT31;53633;49.932;10.884;2022-07-24T10:44:27;32.08;35.98
66722;SHT31;53633;49.932;10.884;2022-07-24T10:47:03;31.85;35.33
66722;SHT31;53633;49.932;10.884;2022-07-24T10:49:34;32.08;35.36
66722;SHT31;53633;49.932;10.884;2022-07-24T10:52:01;31.84;35.86
66722;SHT31;53633;49.932;10.884;2022-07-24T10:54:29;31.92;35.88
66722;SHT31;53633;49.932;10.884;2022-07-24T10:56:55;31.92;36.72
66722;SHT31;53633;49.932;10.884;2022-07-24T10:59:32;32.27;35.31
66722;SHT31;53633;49.932;10.884;2022-07-24T11:02:24;32.23;35.74
66722;SHT31;53633;49.932;10.884;2022-07-24T11:05:24;32.54;33.01
66722;SHT31;53633;49.932;10.884;2022-07-24T11:08:13;32.25;33.68
66722;SHT31;53633;49.932;10.884;2022-07-24T11:10:49;32.47;33.09
66722;SHT31;53633;49.932;10.884;2022-07-24T11:13:45;32.09;34.07
66722;SHT31;53633;49.932;10.884;2022-07-24T11:16:20;31.90;35.06
66722;SHT31;53633;49.932;10.884;2022-07-24T11:19:26;31.77;34.63
66722;SHT31;53633;49.932;10.884;2022-07-24T11:22:06;31.84;33.71
66722;SHT31;53633;49.932;10.884;2022-07-24T11:24:33;31.89;35.09
66722;SHT31;53633;49.932;10.884;2022-07-24T11:27:05;32.02;33.32
66722;SHT31;53633;49.932;10.884;2022-07-24T11:29:34;32.10;33.98
66722;SHT31;53633;49.932;10.884;2022-07-24T11:32:03;32.09;32.70
66722;SHT31;53633;49.932;10.884;2022-07-24T11:34:31;32.09;33.32
66722;SHT31;53633;49.932;10.884;2022-07-24T11:36:59;32.10;33.95
66722;SHT31;53633;49.932;10.884;2022-07-24T11:39:28;32.15;34.12
66722;SHT31;53633;49.932;10.884;2022-07-24T11:41:56;32.29;33.72
66722;SHT31;53633;49.932;10.884;2022-07-24T11:44:26;32.26;33.87
66722;SHT31;53633;49.932;10.884;2022-07-24T11:46:53;32.30;33.42
66722;SHT31;53633;49.932;10.884;2022-07-24T11:49:19;32.23;33.58
66722;SHT31;53633;49.932;10.884;2022-07-24T11:51:48;32.13;33.77
66722;SHT31;53633;49.932;10.884;2022-07-24T11:54:21;32.08;33.52
66722;SHT31;53633;49.932;10.884;2022-07-24T11:56:48;32.09;33.95
66722;SHT31;53633;49.932;10.884;2022-07-24T11:59:22;32.25;34.25
66722;SHT31;53633;49.932;10.884;2022-07-24T12:01:50;32.35;33.57
66722;SHT31;53633;49.932;10.884;2022-07-24T12:04:20;32.40;34.52
66722;SHT31;53633;49.932;10.884;2022-07-24T12:06:47;32.40;32.88
66722;SHT31;53633;49.932;10.884;2022-07-24T12:09:14;32.41;33.73
66722;SHT31;53633;49.932;10.884;2022-07-24T12:11:41;32.54;33.01
66722;SHT31;53633;49.932;10.884;2022-07-24T12:14:13;32.57;33.20
66722;SHT31;53633;49.932;10.884;2022-07-24T12:16:40;32.52;32.33
66722;SHT31;53633;49.932;10.884;2022-07-24T12:19:16;32.08;33.82
66722;SHT31;53633;49.932;10.884;2022-07-24T12:21:44;32.36;33.50
66722;SHT31;53633;49.932;10.884;2022-07-24T12:24:11;32.64;33.43
66722;SHT31;53633;49.932;10.884;2022-07-24T12:26:49;32.74;32.18
66722;SHT31;53633;49.932;10.884;2022-07-24T12:29:16;32.77;31.81
66722;SHT31;53633;49.932;10.884;2022-07-24T12:31:43;32.71;32.13
66722;SHT31;53633;49.932;10.884;2022-07-24T12:34:09;32.82;32.25
66722;SHT31;53633;49.932;10.884;2022-07-24T12:36:37;33.02;31.99
66722;SHT31;53633;49.932;10.884;2022-07-24T12:39:04;32.88;32.78
66722;SHT31;53633;49.932;10.884;2022-07-24T12:41:31;32.63;32.56
66722;SHT31;53633;49.932;10.884;2022-07-24T12:44:09;32.26;34.17
66722;SHT31;53633;49.932;10.884;2022-07-24T12:46:37;31.85;34.40
66722;SHT31;53633;49.932;10.884;2022-07-24T12:49:05;31.44;34.24
66722;SHT31;53633;49.932;10.884;2022-07-24T12:51:50;31.30;34.86
66722;SHT31;53633;49.932;10.884;2022-07-24T12:54:19;31.35;34.61
66722;SHT31;53633;49.932;10.884;2022-07-24T12:56:47;31.58;34.85
66722;SHT31;53633;49.932;10.884;2022-07-24T12:59:26;31.74;34.27
66722;SHT31;53633;49.932;10.884;2022-07-24T13:01:54;32.06;33.55
66722;SHT31;53633;49.932;10.884;2022-07-24T13:04:22;32.30;33.45
66722;SHT31;53633;49.932;10.884;2022-07-24T13:06:52;32.56;32.75
66722;SHT31;53633;49.932;10.884;2022-07-24T13:09:21;32.60;32.70
66722;SHT31;53633;49.932;10.884;2022-07-24T13:11:49;32.67;32.09
66722;SHT31;53633;49.932;10.884;2022-07-24T13:14:18;32.85;30.93
66722;SHT31;53633;49.932;10.884;2022-07-24T13:16:47;32.71;32.38
66722;SHT31;53633;49.932;10.884;2022-07-24T13:19:15;32.57;31.30
66722;SHT31;53633;49.932;10.884;2022-07-24T13:21:42;32.37;32.51
66722;SHT31;53633;49.932;10.884;2022-07-24T13:24:12;32.59;32.00
66722;SHT31;53633;49.932;10.884;2022-07-24T13:26:40;32.52;31.72
66722;SHT31;53633;49.932;10.884;2022-07-24T13:29:08;32.44;31.47
66722;SHT31;53633;49.932;10.884;2022-07-24T13:31:35;32.49;31.81
66722;SHT31;53633;49.932;10.884;2022-07-24T13:34:02;32.63;32.34
66722;SHT31;53633;49.932;10.884;2022-07-24T13:36:29;32.53;31.22
66722;SHT31;53633;49.932;10.884;2022-07-24T13:38:57;32.61;31.79
66722;SHT31;53633;49.932;10.884;2022-07-24T13:41:25;32.71;32.22
66722;SHT31;53633;49.932;10.884;2022-07-24T13:43:51;32.65;31.97
66722;SHT31;53633;49.932;10.884;2022-07-24T13:46:18;32.53;32.10
66722;SHT31;53633;49.932;10.884;2022-07-24T13:48:47;32.50;32.22
66722;SHT31;53633;49.932;10.884;2022-07-24T13:51:22;32.43;31.80
66722;SHT31;53633;49.932;10.884;2022-07-24T13:53:49;32.40;32.26
66722;SHT31;53633;49.932;10.884;2022-07-24T13:56:16;32.33;32.10
66722;SHT31;53633;49.932;10.884;2022-07-24T13:58:44;32.25;32.30
66722;SHT31;53633;49.932;10.884;2022-07-24T14:01:11;32.22;32.16
66722;SHT31;53633;49.932;10.884;2022-07-24T14:03:38;32.19;33.21
66722;SHT31;53633;49.932;10.884;2022-07-24T14:06:24;32.12;33.19
66722;SHT31;53633;49.932;10.884;2022-07-24T14:08:51;32.23;32.35
66722;SHT31;53633;49.932;10.884;2022-07-24T14:11:18;32.17;31.99
66722;SHT31;53633;49.932;10.884;2022-07-24T14:13:46;32.12;32.46
66722;SHT31;53633;49.932;10.884;2022-07-24T14:16:13;32.09;32.14
66722;SHT31;53633;49.932;10.884;2022-07-24T14:18:39;32.06;32.15
66722;SHT31;53633;49.932;10.884;2022-07-24T14:21:06;32.04;31.86
66722;SHT31;53633;49.932;10.884;2022-07-24T14:23:33;31.99;32.12
66722;SHT31;53633;49.932;10.884;2022-07-24T14:25:59;31.92;32.03
66722;SHT31;53633;49.932;10.884;2022-07-24T14:28:26;31.89;33.41
66722;SHT31;53633;49.932;10.884;2022-07-24T14:30:54;31.72;32.30
66722;SHT31;53633;49.932;10.884;2022-07-24T14:33:21;31.45;32.37
66722;SHT31;53633;49.932;10.884;2022-07-24T14:35:47;31.60;32.87
66722;SHT31;53633;49.932;10.884;2022-07-24T14:38:14;31.71;33.30
66722;SHT31;53633;49.932;10.884;2022-07-24T14:40:41;31.57;33.31
66722;SHT31;53633;49.932;10.884;2022-07-24T14:43:07;31.51;32.51
66722;SHT31;53633;49.932;10.884;2022-07-24T14:45:34;31.61;33.16
66722;SHT31;53633;49.932;10.884;2022-07-24T14:48:03;31.55;33.57
66722;SHT31;53633;49.932;10.884;2022-07-24T14:50:29;31.68;33.67
66722;SHT31;53633;49.932;10.884;2022-07-24T14:52:56;31.72;33.52
66722;SHT31;53633;49.932;10.884;2022-07-24T14:55:23;31.70;33.94
66722;SHT31;53633;49.932;10.884;2022-07-24T14:57:49;31.68;34.23
66722;SHT31;53633;49.932;10.884;2022-07-24T15:00:16;31.75;34.05
66722;SHT31;53633;49.932;10.884;2022-07-24T15:02:43;31.71;32.79
66722;SHT31;53633;49.932;10.884;2022-07-24T15:05:11;31.78;33.04
66722;SHT31;53633;49.932;10.884;2022-07-24T15:07:38;31.68;32.62
66722;SHT31;53633;49.932;10.884;2022-07-24T15:10:05;31.62;33.09
66722;SHT31;53633;49.932;10.884;2022-07-24T15:12:32;31.74;32.47
66722;SHT31;53633;49.932;10.884;2022-07-24T15:14:58;31.84;33.64
66722;SHT31;53633;49.932;10.884;2022-07-24T15:17:25;31.86;34.30
66722;SHT31;53633;49.932;10.884;2022-07-24T15:19:52;31.92;32.63
66722;SHT31;53633;49.932;10.884;2022-07-24T15:22:20;31.86;32.52
66722;SHT31;53633;49.932;10.884;2022-07-24T15:24:47;31.88;32.48